Milwaukee, Wisconsin
Traffic Map
Current Weather Conditions
Milwaukee, Wisconsin
Scattered Clouds
Scattered Clouds
69°
Feels Like: 69°
Wind Chill: 69° Ceiling: Unl
Heat Index: 69° Visibility: 10mi
Dew Point: 65° Wind: 10mph
Humidity: 87% Direction: 20° (NNE)
Pressure: 29.99in Gusts: 0mph
Raw Report DataKMKE 300252Z 02009KT 10SM FEW046 SCT250 21/18 A2999 RMK AO2 SLP150 T02060183 50001
Traffic Incident Summary
Active as of:
Severity:
Category:
InformationThere was an issue retrieving the traffic information for this location. Please try a different location or try again shortly.
Advertisements
Track Severe Weather on mobile